sensor_id;sensor_type;location;lat;lon;timestamp;temperature;humidity
52495;DHT22;38405;53.212;5.660;2022-12-18T00:00:43;-2.70;99.90
52495;DHT22;38405;53.212;5.660;2022-12-18T00:03:09;-2.70;99.90
52495;DHT22;38405;53.212;5.660;2022-12-18T00:05:35;-2.70;99.90
52495;DHT22;38405;53.212;5.660;2022-12-18T00:08:01;-2.70;99.90
52495;DHT22;38405;53.212;5.660;2022-12-18T00:10:28;-2.70;99.90
52495;DHT22;38405;53.212;5.660;2022-12-18T00:12:53;-2.70;99.90
52495;DHT22;38405;53.212;5.660;2022-12-18T00:15:19;-2.60;99.90
52495;DHT22;38405;53.212;5.660;2022-12-18T00:17:45;-2.60;99.90
52495;DHT22;38405;53.212;5.660;2022-12-18T00:20:10;-2.70;99.90
52495;DHT22;38405;53.212;5.660;2022-12-18T00:22:36;-2.70;99.90
52495;DHT22;38405;53.212;5.660;2022-12-18T00:25:02;-2.70;99.90
52495;DHT22;38405;53.212;5.660;2022-12-18T00:27:28;-2.70;99.90
52495;DHT22;38405;53.212;5.660;2022-12-18T00:29:53;-2.80;99.90
52495;DHT22;38405;53.212;5.660;2022-12-18T00:32:19;-2.80;99.90
52495;DHT22;38405;53.212;5.660;2022-12-18T00:34:44;-2.80;99.90
52495;DHT22;38405;53.212;5.660;2022-12-18T00:37:10;-2.80;99.90
52495;DHT22;38405;53.212;5.660;2022-12-18T00:39:36;-2.70;99.90
52495;DHT22;38405;53.212;5.660;2022-12-18T00:42:01;-2.70;99.90
52495;DHT22;38405;53.212;5.660;2022-12-18T00:44:45;-2.70;99.90
52495;DHT22;38405;53.212;5.660;2022-12-18T00:47:11;-2.80;99.90
52495;DHT22;38405;53.212;5.660;2022-12-18T00:49:36;-2.70;99.90
52495;DHT22;38405;53.212;5.660;2022-12-18T00:52:02;-2.70;99.90
52495;DHT22;38405;53.212;5.660;2022-12-18T00:54:28;-2.40;99.90
52495;DHT22;38405;53.212;5.660;2022-12-18T00:56:53;-2.80;99.90
52495;DHT22;38405;53.212;5.660;2022-12-18T00:59:20;-2.80;99.90
52495;DHT22;38405;53.212;5.660;2022-12-18T01:01:47;-2.80;99.90
52495;DHT22;38405;53.212;5.660;2022-12-18T01:04:13;-2.80;99.90
52495;DHT22;38405;53.212;5.660;2022-12-18T01:06:39;-2.80;99.90
52495;DHT22;38405;53.212;5.660;2022-12-18T01:09:05;-2.80;99.90
52495;DHT22;38405;53.212;5.660;2022-12-18T01:11:31;-2.80;99.90
52495;DHT22;38405;53.212;5.660;2022-12-18T01:13:56;-2.80;99.90
52495;DHT22;38405;53.212;5.660;2022-12-18T01:16:22;-2.80;99.90
52495;DHT22;38405;53.212;5.660;2022-12-18T01:18:52;-2.80;99.90
52495;DHT22;38405;53.212;5.660;2022-12-18T01:21:19;-2.80;99.90
52495;DHT22;38405;53.212;5.660;2022-12-18T01:23:45;-2.80;99.90
52495;DHT22;38405;53.212;5.660;2022-12-18T01:26:16;-2.80;99.90
52495;DHT22;38405;53.212;5.660;2022-12-18T01:28:43;-2.80;99.90
52495;DHT22;38405;53.212;5.660;2022-12-18T01:31:14;-2.90;99.90
52495;DHT22;38405;53.212;5.660;2022-12-18T01:33:40;-2.90;99.90
52495;DHT22;38405;53.212;5.660;2022-12-18T01:36:06;-2.90;99.90
52495;DHT22;38405;53.212;5.660;2022-12-18T01:38:32;-2.90;99.90
52495;DHT22;38405;53.212;5.660;2022-12-18T01:41:01;-2.90;99.90
52495;DHT22;38405;53.212;5.660;2022-12-18T01:43:48;-2.90;99.90
52495;DHT22;38405;53.212;5.660;2022-12-18T01:46:14;-2.90;99.90
52495;DHT22;38405;53.212;5.660;2022-12-18T01:48:41;-2.90;99.90
52495;DHT22;38405;53.212;5.660;2022-12-18T01:51:08;-3.00;99.90
52495;DHT22;38405;53.212;5.660;2022-12-18T01:53:34;-3.00;99.90
52495;DHT22;38405;53.212;5.660;2022-12-18T01:56:01;-3.10;99.90
52495;DHT22;38405;53.212;5.660;2022-12-18T01:58:46;-3.00;99.90
52495;DHT22;38405;53.212;5.660;2022-12-18T02:01:14;-3.10;99.90
52495;DHT22;38405;53.212;5.660;2022-12-18T02:03:43;-3.10;99.90
52495;DHT22;38405;53.212;5.660;2022-12-18T02:06:19;-3.10;99.90
52495;DHT22;38405;53.212;5.660;2022-12-18T02:09:18;-3.20;99.90
52495;DHT22;38405;53.212;5.660;2022-12-18T02:14:34;-3.20;99.90
52495;DHT22;38405;53.212;5.660;2022-12-18T02:17:12;-3.30;99.90
52495;DHT22;38405;53.212;5.660;2022-12-18T02:20:09;-3.30;99.90
52495;DHT22;38405;53.212;5.660;2022-12-18T02:26:14;-3.40;99.90
52495;DHT22;38405;53.212;5.660;2022-12-18T02:28:36;-3.40;99.90
52495;DHT22;38405;53.212;5.660;2022-12-18T02:31:05;-3.40;99.90
52495;DHT22;38405;53.212;5.660;2022-12-18T02:33:33;-3.40;99.90
52495;DHT22;38405;53.212;5.660;2022-12-18T02:36:00;-3.50;99.90
52495;DHT22;38405;53.212;5.660;2022-12-18T02:38:27;-3.50;99.90
52495;DHT22;38405;53.212;5.660;2022-12-18T02:40:54;-3.50;99.90
52495;DHT22;38405;53.212;5.660;2022-12-18T02:43:20;-3.50;99.90
52495;DHT22;38405;53.212;5.660;2022-12-18T02:49:12;-3.60;99.90
52495;DHT22;38405;53.212;5.660;2022-12-18T02:54:55;-3.70;99.90
52495;DHT22;38405;53.212;5.660;2022-12-18T02:57:37;-3.80;99.90
52495;DHT22;38405;53.212;5.660;2022-12-18T03:00:33;-3.90;99.90
52495;DHT22;38405;53.212;5.660;2022-12-18T03:03:17;-4.00;99.90
52495;DHT22;38405;53.212;5.660;2022-12-18T03:06:01;-4.10;99.90
52495;DHT22;38405;53.212;5.660;2022-12-18T03:08:29;-4.20;99.90
52495;DHT22;38405;53.212;5.660;2022-12-18T03:11:05;-4.30;99.90
52495;DHT22;38405;53.212;5.660;2022-12-18T03:13:37;-4.30;99.90
52495;DHT22;38405;53.212;5.660;2022-12-18T03:16:10;-4.40;99.90
52495;DHT22;38405;53.212;5.660;2022-12-18T03:18:50;-4.40;99.90
52495;DHT22;38405;53.212;5.660;2022-12-18T03:21:21;-4.40;99.90
52495;DHT22;38405;53.212;5.660;2022-12-18T03:23:49;-4.50;99.90
52495;DHT22;38405;53.212;5.660;2022-12-18T03:26:19;-4.50;99.90
52495;DHT22;38405;53.212;5.660;2022-12-18T03:28:54;-4.60;99.90
52495;DHT22;38405;53.212;5.660;2022-12-18T03:31:23;-4.60;99.90
52495;DHT22;38405;53.212;5.660;2022-12-18T03:33:57;-4.70;99.90
52495;DHT22;38405;53.212;5.660;2022-12-18T03:36:24;-4.70;99.90
52495;DHT22;38405;53.212;5.660;2022-12-18T03:38:50;-4.70;99.90
52495;DHT22;38405;53.212;5.660;2022-12-18T03:41:32;-4.80;99.90
52495;DHT22;38405;53.212;5.660;2022-12-18T03:44:14;-4.80;99.90
52495;DHT22;38405;53.212;5.660;2022-12-18T03:47:05;-4.80;99.90
52495;DHT22;38405;53.212;5.660;2022-12-18T03:52:37;-4.90;99.90
52495;DHT22;38405;53.212;5.660;2022-12-18T03:55:05;-4.90;99.90
52495;DHT22;38405;53.212;5.660;2022-12-18T03:57:32;-3.90;99.90
52495;DHT22;38405;53.212;5.660;2022-12-18T04:00:03;-5.00;99.90
52495;DHT22;38405;53.212;5.660;2022-12-18T04:02:30;-5.00;99.90
52495;DHT22;38405;53.212;5.660;2022-12-18T04:04:58;-5.10;99.90
52495;DHT22;38405;53.212;5.660;2022-12-18T04:07:25;-5.10;99.90
52495;DHT22;38405;53.212;5.660;2022-12-18T04:09:54;-5.10;99.90
52495;DHT22;38405;53.212;5.660;2022-12-18T04:12:23;-5.10;99.90
52495;DHT22;38405;53.212;5.660;2022-12-18T04:14:49;-5.20;99.90
52495;DHT22;38405;53.212;5.660;2022-12-18T04:17:14;-5.20;99.90
52495;DHT22;38405;53.212;5.660;2022-12-18T04:19:40;-5.20;99.90
52495;DHT22;38405;53.212;5.660;2022-12-18T04:22:05;-5.20;99.90
52495;DHT22;38405;53.212;5.660;2022-12-18T04:24:31;-5.20;99.90
52495;DHT22;38405;53.212;5.660;2022-12-18T04:26:56;-5.20;99.90
52495;DHT22;38405;53.212;5.660;2022-12-18T04:29:22;-5.20;99.90
52495;DHT22;38405;53.212;5.660;2022-12-18T04:31:48;-5.20;99.90
52495;DHT22;38405;53.212;5.660;2022-12-18T04:34:13;-5.30;99.90
52495;DHT22;38405;53.212;5.660;2022-12-18T04:36:39;-5.30;99.90
52495;DHT22;38405;53.212;5.660;2022-12-18T04:39:05;-5.70;99.90
52495;DHT22;38405;53.212;5.660;2022-12-18T04:41:34;-5.10;99.90
52495;DHT22;38405;53.212;5.660;2022-12-18T04:43:59;-5.40;99.90
52495;DHT22;38405;53.212;5.660;2022-12-18T04:46:25;-5.30;99.90
52495;DHT22;38405;53.212;5.660;2022-12-18T04:48:50;-5.40;99.90
52495;DHT22;38405;53.212;5.660;2022-12-18T04:51:16;-5.50;99.90
52495;DHT22;38405;53.212;5.660;2022-12-18T04:53:42;-5.50;99.90
52495;DHT22;38405;53.212;5.660;2022-12-18T04:56:10;-5.50;99.90
52495;DHT22;38405;53.212;5.660;2022-12-18T04:58:37;-5.50;99.90
52495;DHT22;38405;53.212;5.660;2022-12-18T05:01:03;-5.50;99.90
52495;DHT22;38405;53.212;5.660;2022-12-18T05:03:29;-5.50;99.90
52495;DHT22;38405;53.212;5.660;2022-12-18T05:05:55;-5.50;99.90
52495;DHT22;38405;53.212;5.660;2022-12-18T05:08:21;-5.60;99.90
52495;DHT22;38405;53.212;5.660;2022-12-18T05:10:46;-5.80;99.90
52495;DHT22;38405;53.212;5.660;2022-12-18T05:13:12;-5.90;99.90
52495;DHT22;38405;53.212;5.660;2022-12-18T05:15:37;-6.00;99.90
52495;DHT22;38405;53.212;5.660;2022-12-18T05:18:04;-6.00;99.90
52495;DHT22;38405;53.212;5.660;2022-12-18T05:20:29;-6.10;99.90
52495;DHT22;38405;53.212;5.660;2022-12-18T05:22:56;-6.00;99.90
52495;DHT22;38405;53.212;5.660;2022-12-18T05:25:22;-6.10;99.90
52495;DHT22;38405;53.212;5.660;2022-12-18T05:27:48;-6.00;99.90
52495;DHT22;38405;53.212;5.660;2022-12-18T05:30:14;-6.00;99.90
52495;DHT22;38405;53.212;5.660;2022-12-18T05:32:40;-5.20;99.90
52495;DHT22;38405;53.212;5.660;2022-12-18T05:35:07;-6.00;99.90
52495;DHT22;38405;53.212;5.660;2022-12-18T05:37:34;-6.00;99.90
52495;DHT22;38405;53.212;5.660;2022-12-18T05:39:59;-6.00;99.90
52495;DHT22;38405;53.212;5.660;2022-12-18T05:42:25;-6.00;99.90
52495;DHT22;38405;53.212;5.660;2022-12-18T05:44:51;-4.50;99.90
52495;DHT22;38405;53.212;5.660;2022-12-18T05:47:16;-6.00;99.90
52495;DHT22;38405;53.212;5.660;2022-12-18T05:49:42;-6.00;99.90
52495;DHT22;38405;53.212;5.660;2022-12-18T05:52:08;-6.00;99.90
52495;DHT22;38405;53.212;5.660;2022-12-18T05:54:34;-6.00;99.90
52495;DHT22;38405;53.212;5.660;2022-12-18T05:56:59;-6.00;99.90
52495;DHT22;38405;53.212;5.660;2022-12-18T05:59:25;-6.00;99.90
52495;DHT22;38405;53.212;5.660;2022-12-18T06:01:51;-6.00;99.90
52495;DHT22;38405;53.212;5.660;2022-12-18T06:04:17;-6.00;99.90
52495;DHT22;38405;53.212;5.660;2022-12-18T06:06:42;-6.00;99.90
52495;DHT22;38405;53.212;5.660;2022-12-18T06:09:08;-6.00;99.90
52495;DHT22;38405;53.212;5.660;2022-12-18T06:11:36;-6.00;99.90
52495;DHT22;38405;53.212;5.660;2022-12-18T06:14:03;-6.00;99.90
52495;DHT22;38405;53.212;5.660;2022-12-18T06:16:30;-6.00;99.90
52495;DHT22;38405;53.212;5.660;2022-12-18T06:18:58;-6.00;99.90
52495;DHT22;38405;53.212;5.660;2022-12-18T06:21:24;-6.10;99.90
52495;DHT22;38405;53.212;5.660;2022-12-18T06:23:49;-6.30;99.90
52495;DHT22;38405;53.212;5.660;2022-12-18T06:26:15;-6.40;99.90
52495;DHT22;38405;53.212;5.660;2022-12-18T06:28:41;-6.50;99.90
52495;DHT22;38405;53.212;5.660;2022-12-18T06:31:07;-6.50;99.90
52495;DHT22;38405;53.212;5.660;2022-12-18T06:33:34;-6.60;99.90
52495;DHT22;38405;53.212;5.660;2022-12-18T06:36:02;-6.50;99.90
52495;DHT22;38405;53.212;5.660;2022-12-18T06:38:28;-6.60;99.90
52495;DHT22;38405;53.212;5.660;2022-12-18T06:40:53;-6.60;99.90
52495;DHT22;38405;53.212;5.660;2022-12-18T06:43:19;-6.60;99.90
52495;DHT22;38405;53.212;5.660;2022-12-18T06:45:45;-6.70;99.90
52495;DHT22;38405;53.212;5.660;2022-12-18T06:48:14;-6.60;99.90
52495;DHT22;38405;53.212;5.660;2022-12-18T06:50:42;-6.70;99.90
52495;DHT22;38405;53.212;5.660;2022-12-18T06:53:08;-6.70;99.90
52495;DHT22;38405;53.212;5.660;2022-12-18T06:55:33;-6.70;99.90
52495;DHT22;38405;53.212;5.660;2022-12-18T06:57:59;-6.70;99.90
52495;DHT22;38405;53.212;5.660;2022-12-18T07:00:24;-6.70;99.90
52495;DHT22;38405;53.212;5.660;2022-12-18T07:02:50;-6.70;99.90
52495;DHT22;38405;53.212;5.660;2022-12-18T07:05:15;-6.60;99.90
52495;DHT22;38405;53.212;5.660;2022-12-18T07:07:41;-6.20;99.90
52495;DHT22;38405;53.212;5.660;2022-12-18T07:10:07;-6.60;99.90
52495;DHT22;38405;53.212;5.660;2022-12-18T07:12:33;-6.60;99.90
52495;DHT22;38405;53.212;5.660;2022-12-18T07:14:58;-6.50;99.90
52495;DHT22;38405;53.212;5.660;2022-12-18T07:17:24;-6.50;99.90
52495;DHT22;38405;53.212;5.660;2022-12-18T07:19:49;-6.50;99.90
52495;DHT22;38405;53.212;5.660;2022-12-18T07:22:15;-6.40;99.90
52495;DHT22;38405;53.212;5.660;2022-12-18T07:24:41;-6.40;99.90
52495;DHT22;38405;53.212;5.660;2022-12-18T07:27:06;-6.30;99.90
52495;DHT22;38405;53.212;5.660;2022-12-18T07:29:32;-6.20;99.90
52495;DHT22;38405;53.212;5.660;2022-12-18T07:31:57;-6.10;99.90
52495;DHT22;38405;53.212;5.660;2022-12-18T07:34:23;-6.10;99.90
52495;DHT22;38405;53.212;5.660;2022-12-18T07:36:49;-6.10;99.90
52495;DHT22;38405;53.212;5.660;2022-12-18T07:39:14;-6.00;99.90
52495;DHT22;38405;53.212;5.660;2022-12-18T07:41:40;-6.00;99.90
52495;DHT22;38405;53.212;5.660;2022-12-18T07:44:11;-6.00;99.90
52495;DHT22;38405;53.212;5.660;2022-12-18T07:46:37;-6.00;99.90
52495;DHT22;38405;53.212;5.660;2022-12-18T07:49:03;-5.90;99.90
52495;DHT22;38405;53.212;5.660;2022-12-18T07:51:29;-5.90;99.90
52495;DHT22;38405;53.212;5.660;2022-12-18T07:53:55;-5.90;99.90
52495;DHT22;38405;53.212;5.660;2022-12-18T07:56:21;-5.90;99.90
52495;DHT22;38405;53.212;5.660;2022-12-18T07:58:47;-5.90;99.90
52495;DHT22;38405;53.212;5.660;2022-12-18T08:01:13;-5.90;99.90
52495;DHT22;38405;53.212;5.660;2022-12-18T08:03:40;-5.80;99.90
52495;DHT22;38405;53.212;5.660;2022-12-18T08:06:07;-5.80;99.90
52495;DHT22;38405;53.212;5.660;2022-12-18T08:08:34;-5.80;99.90
52495;DHT22;38405;53.212;5.660;2022-12-18T08:10:59;-5.80;99.90
52495;DHT22;38405;53.212;5.660;2022-12-18T08:13:26;-5.80;99.90
52495;DHT22;38405;53.212;5.660;2022-12-18T08:15:58;-5.70;99.90
52495;DHT22;38405;53.212;5.660;2022-12-18T08:18:24;-5.70;99.90
52495;DHT22;38405;53.212;5.660;2022-12-18T08:20:50;-5.60;99.90
52495;DHT22;38405;53.212;5.660;2022-12-18T08:23:15;-5.50;99.90
52495;DHT22;38405;53.212;5.660;2022-12-18T08:25:41;-5.50;99.90
52495;DHT22;38405;53.212;5.660;2022-12-18T08:28:07;-5.40;99.90
52495;DHT22;38405;53.212;5.660;2022-12-18T08:30:32;-5.40;99.90
52495;DHT22;38405;53.212;5.660;2022-12-18T08:32:58;-5.30;99.90
52495;DHT22;38405;53.212;5.660;2022-12-18T08:35:23;-5.20;99.90
52495;DHT22;38405;53.212;5.660;2022-12-18T08:37:52;-5.20;99.90
52495;DHT22;38405;53.212;5.660;2022-12-18T08:40:18;-5.10;99.90
52495;DHT22;38405;53.212;5.660;2022-12-18T08:42:43;-5.10;99.90
52495;DHT22;38405;53.212;5.660;2022-12-18T08:45:27;-5.00;99.90
52495;DHT22;38405;53.212;5.660;2022-12-18T08:47:53;-4.60;99.90
52495;DHT22;38405;53.212;5.660;2022-12-18T08:50:19;-5.00;99.90
52495;DHT22;38405;53.212;5.660;2022-12-18T08:52:45;-5.00;99.90
52495;DHT22;38405;53.212;5.660;2022-12-18T08:55:11;-4.90;99.90
52495;DHT22;38405;53.212;5.660;2022-12-18T08:57:36;-4.90;99.90
52495;DHT22;38405;53.212;5.660;2022-12-18T09:00:03;-4.80;99.90
52495;DHT22;38405;53.212;5.660;2022-12-18T09:02:29;-4.80;99.90
52495;DHT22;38405;53.212;5.660;2022-12-18T09:04:54;-4.70;99.90
52495;DHT22;38405;53.212;5.660;2022-12-18T09:07:20;-4.60;99.90
52495;DHT22;38405;53.212;5.660;2022-12-18T09:09:46;-4.50;99.90
52495;DHT22;38405;53.212;5.660;2022-12-18T09:12:11;-4.40;99.90
52495;DHT22;38405;53.212;5.660;2022-12-18T09:14:37;-4.30;99.90
52495;DHT22;38405;53.212;5.660;2022-12-18T09:17:03;-4.20;99.90
52495;DHT22;38405;53.212;5.660;2022-12-18T09:19:29;-4.10;99.90
52495;DHT22;38405;53.212;5.660;2022-12-18T09:21:54;-4.00;99.90
52495;DHT22;38405;53.212;5.660;2022-12-18T09:24:20;-3.90;99.90
52495;DHT22;38405;53.212;5.660;2022-12-18T09:26:45;-3.80;99.90
52495;DHT22;38405;53.212;5.660;2022-12-18T09:29:11;-3.70;99.90
52495;DHT22;38405;53.212;5.660;2022-12-18T09:31:38;-3.60;99.90
52495;DHT22;38405;53.212;5.660;2022-12-18T09:34:03;-3.60;99.90
52495;DHT22;38405;53.212;5.660;2022-12-18T09:36:29;-3.50;99.90
52495;DHT22;38405;53.212;5.660;2022-12-18T09:38:55;-3.50;99.90
52495;DHT22;38405;53.212;5.660;2022-12-18T09:44:00;-3.30;99.90
52495;DHT22;38405;53.212;5.660;2022-12-18T09:46:33;-3.10;99.90
52495;DHT22;38405;53.212;5.660;2022-12-18T09:49:03;-2.90;99.90
52495;DHT22;38405;53.212;5.660;2022-12-18T09:51:39;-2.70;99.90
52495;DHT22;38405;53.212;5.660;2022-12-18T09:54:22;-2.60;99.90
52495;DHT22;38405;53.212;5.660;2022-12-18T09:56:49;-2.60;99.90
52495;DHT22;38405;53.212;5.660;2022-12-18T09:59:25;-2.50;99.90
52495;DHT22;38405;53.212;5.660;2022-12-18T10:01:52;-2.50;99.90
52495;DHT22;38405;53.212;5.660;2022-12-18T10:04:18;-2.50;99.90
52495;DHT22;38405;53.212;5.660;2022-12-18T10:07:00;-2.40;99.90
52495;DHT22;38405;53.212;5.660;2022-12-18T10:09:35;-2.40;99.90
52495;DHT22;38405;53.212;5.660;2022-12-18T10:17:48;-2.40;99.90
52495;DHT22;38405;53.212;5.660;2022-12-18T10:20:32;-2.30;99.90
52495;DHT22;38405;53.212;5.660;2022-12-18T10:28:17;-2.20;99.90
52495;DHT22;38405;53.212;5.660;2022-12-18T10:30:44;-2.10;99.90
52495;DHT22;38405;53.212;5.660;2022-12-18T10:33:20;-2.10;99.90
52495;DHT22;38405;53.212;5.660;2022-12-18T10:35:48;-2.00;99.90
52495;DHT22;38405;53.212;5.660;2022-12-18T10:48:36;-1.90;99.90
52495;DHT22;38405;53.212;5.660;2022-12-18T10:51:06;-1.90;99.90
52495;DHT22;38405;53.212;5.660;2022-12-18T10:53:33;-1.90;99.90
52495;DHT22;38405;53.212;5.660;2022-12-18T10:56:00;-1.90;99.90
52495;DHT22;38405;53.212;5.660;2022-12-18T10:58:31;-1.90;99.90
52495;DHT22;38405;53.212;5.660;2022-12-18T11:03:41;-1.80;99.90
52495;DHT22;38405;53.212;5.660;2022-12-18T11:06:17;-1.80;99.90
52495;DHT22;38405;53.212;5.660;2022-12-18T11:08:56;-1.80;99.90
52495;DHT22;38405;53.212;5.660;2022-12-18T11:11:23;-1.80;99.90
52495;DHT22;38405;53.212;5.660;2022-12-18T11:14:00;-1.80;99.90
52495;DHT22;38405;53.212;5.660;2022-12-18T11:16:27;-1.70;99.90
52495;DHT22;38405;53.212;5.660;2022-12-18T11:19:19;-1.70;99.90
52495;DHT22;38405;53.212;5.660;2022-12-18T11:21:48;-1.70;99.90
52495;DHT22;38405;53.212;5.660;2022-12-18T11:24:34;-1.60;99.90
52495;DHT22;38405;53.212;5.660;2022-12-18T11:27:02;-1.60;99.90
52495;DHT22;38405;53.212;5.660;2022-12-18T11:29:38;-1.60;99.90
52495;DHT22;38405;53.212;5.660;2022-12-18T11:32:46;-1.60;99.90
52495;DHT22;38405;53.212;5.660;2022-12-18T11:40:41;-1.50;99.90
52495;DHT22;38405;53.212;5.660;2022-12-18T11:46:27;-1.50;99.90
52495;DHT22;38405;53.212;5.660;2022-12-18T11:49:12;-1.50;99.90
52495;DHT22;38405;53.212;5.660;2022-12-18T11:51:55;-1.50;99.90
52495;DHT22;38405;53.212;5.660;2022-12-18T11:54:24;-1.50;99.90
52495;DHT22;38405;53.212;5.660;2022-12-18T11:57:02;-1.50;99.90
52495;DHT22;38405;53.212;5.660;2022-12-18T12:05:20;-1.50;99.90
52495;DHT22;38405;53.212;5.660;2022-12-18T12:10:57;-1.40;99.90
52495;DHT22;38405;53.212;5.660;2022-12-18T12:21:35;-1.30;99.90
52495;DHT22;38405;53.212;5.660;2022-12-18T12:27:22;-1.20;99.90
52495;DHT22;38405;53.212;5.660;2022-12-18T12:30:18;-1.20;99.90
52495;DHT22;38405;53.212;5.660;2022-12-18T12:38:09;-1.10;99.90
52495;DHT22;38405;53.212;5.660;2022-12-18T12:40:42;-1.10;99.90
52495;DHT22;38405;53.212;5.660;2022-12-18T12:43:42;-1.10;99.90
52495;DHT22;38405;53.212;5.660;2022-12-18T12:46:14;-1.10;99.90
52495;DHT22;38405;53.212;5.660;2022-12-18T12:48:50;-1.10;99.90
52495;DHT22;38405;53.212;5.660;2022-12-18T12:51:20;-1.10;99.90
52495;DHT22;38405;53.212;5.660;2022-12-18T12:53:47;-1.10;99.90
52495;DHT22;38405;53.212;5.660;2022-12-18T12:56:16;-0.50;99.90
52495;DHT22;38405;53.212;5.660;2022-12-18T13:01:57;-1.00;99.90
52495;DHT22;38405;53.212;5.660;2022-12-18T13:04:39;-1.00;99.90
52495;DHT22;38405;53.212;5.660;2022-12-18T13:10:12;-1.00;99.90
52495;DHT22;38405;53.212;5.660;2022-12-18T13:13:06;-1.00;99.90
52495;DHT22;38405;53.212;5.660;2022-12-18T13:18:11;-0.90;99.90
52495;DHT22;38405;53.212;5.660;2022-12-18T13:20:49;-0.90;99.90
52495;DHT22;38405;53.212;5.660;2022-12-18T13:23:26;-0.90;99.90
52495;DHT22;38405;53.212;5.660;2022-12-18T13:25:56;-0.90;99.90
52495;DHT22;38405;53.212;5.660;2022-12-18T13:34:28;-1.00;99.90
52495;DHT22;38405;53.212;5.660;2022-12-18T13:39:40;-1.00;99.90
52495;DHT22;38405;53.212;5.660;2022-12-18T13:44:39;-0.90;99.90
52495;DHT22;38405;53.212;5.660;2022-12-18T13:47:34;-1.00;99.90
52495;DHT22;38405;53.212;5.660;2022-12-18T13:50:12;-1.00;99.90
52495;DHT22;38405;53.212;5.660;2022-12-18T13:52:45;-1.00;99.90
52495;DHT22;38405;53.212;5.660;2022-12-18T13:55:17;-1.00;99.90
52495;DHT22;38405;53.212;5.660;2022-12-18T13:57:43;-1.00;99.90
52495;DHT22;38405;53.212;5.660;2022-12-18T14:00:26;-1.10;99.90
52495;DHT22;38405;53.212;5.660;2022-12-18T14:02:55;-1.10;99.90
52495;DHT22;38405;53.212;5.660;2022-12-18T14:05:26;-1.10;99.90
52495;DHT22;38405;53.212;5.660;2022-12-18T14:07:52;-1.10;99.90
52495;DHT22;38405;53.212;5.660;2022-12-18T14:10:19;-1.10;99.90
52495;DHT22;38405;53.212;5.660;2022-12-18T14:12:48;-1.10;99.90
52495;DHT22;38405;53.212;5.660;2022-12-18T14:18:00;-1.20;99.90
52495;DHT22;38405;53.212;5.660;2022-12-18T14:20:29;-1.20;99.90
52495;DHT22;38405;53.212;5.660;2022-12-18T14:22:56;-1.30;99.90
52495;DHT22;38405;53.212;5.660;2022-12-18T14:25:25;-1.30;99.90
52495;DHT22;38405;53.212;5.660;2022-12-18T14:30:36;-1.30;99.90
52495;DHT22;38405;53.212;5.660;2022-12-18T14:33:14;-1.30;99.90
52495;DHT22;38405;53.212;5.660;2022-12-18T14:35:43;-1.30;99.90
52495;DHT22;38405;53.212;5.660;2022-12-18T14:38:26;-1.30;99.90
52495;DHT22;38405;53.212;5.660;2022-12-18T14:41:00;-1.30;99.90
52495;DHT22;38405;53.212;5.660;2022-12-18T14:43:38;-1.30;99.90
52495;DHT22;38405;53.212;5.660;2022-12-18T14:46:06;-1.30;99.90
52495;DHT22;38405;53.212;5.660;2022-12-18T14:48:51;-1.30;99.90
52495;DHT22;38405;53.212;5.660;2022-12-18T14:51:28;-1.30;99.90
52495;DHT22;38405;53.212;5.660;2022-12-18T14:53:59;-1.40;99.90
52495;DHT22;38405;53.212;5.660;2022-12-18T14:56:34;-1.40;99.90
52495;DHT22;38405;53.212;5.660;2022-12-18T14:59:05;-1.40;99.90
52495;DHT22;38405;53.212;5.660;2022-12-18T15:01:44;-1.40;99.90
52495;DHT22;38405;53.212;5.660;2022-12-18T15:07:16;-1.40;99.90
52495;DHT22;38405;53.212;5.660;2022-12-18T15:23:35;-1.40;99.90
52495;DHT22;38405;53.212;5.660;2022-12-18T15:26:04;-1.40;99.90
52495;DHT22;38405;53.212;5.660;2022-12-18T15:28:34;-1.40;99.90
52495;DHT22;38405;53.212;5.660;2022-12-18T15:33:41;-1.40;99.90
52495;DHT22;38405;53.212;5.660;2022-12-18T15:36:16;-1.40;99.90
52495;DHT22;38405;53.212;5.660;2022-12-18T15:38:49;-1.40;99.90
52495;DHT22;38405;53.212;5.660;2022-12-18T15:41:20;-1.40;99.90
52495;DHT22;38405;53.212;5.660;2022-12-18T15:43:48;-1.40;99.90
52495;DHT22;38405;53.212;5.660;2022-12-18T15:46:19;-1.40;99.90
52495;DHT22;38405;53.212;5.660;2022-12-18T15:48:50;-1.40;99.90
52495;DHT22;38405;53.212;5.660;2022-12-18T15:51:37;-1.40;99.90
52495;DHT22;38405;53.212;5.660;2022-12-18T15:54:06;-1.30;99.90
52495;DHT22;38405;53.212;5.660;2022-12-18T15:56:35;-1.30;99.90
52495;DHT22;38405;53.212;5.660;2022-12-18T15:59:19;-1.40;99.90
52495;DHT22;38405;53.212;5.660;2022-12-18T16:01:50;-1.30;99.90
52495;DHT22;38405;53.212;5.660;2022-12-18T16:04:19;-1.30;99.90
52495;DHT22;38405;53.212;5.660;2022-12-18T16:06:49;-1.30;99.90
52495;DHT22;38405;53.212;5.660;2022-12-18T16:09:15;-1.30;99.90
52495;DHT22;38405;53.212;5.660;2022-12-18T16:11:42;-1.20;99.90
52495;DHT22;38405;53.212;5.660;2022-12-18T16:14:25;-1.20;99.90
52495;DHT22;38405;53.212;5.660;2022-12-18T16:17:03;-1.20;99.90
52495;DHT22;38405;53.212;5.660;2022-12-18T16:19:30;-1.20;99.90
52495;DHT22;38405;53.212;5.660;2022-12-18T16:21:58;-1.20;99.90
52495;DHT22;38405;53.212;5.660;2022-12-18T16:24:26;-1.20;99.90
52495;DHT22;38405;53.212;5.660;2022-12-18T16:26:53;-1.20;99.90
52495;DHT22;38405;53.212;5.660;2022-12-18T16:29:22;-1.20;99.90
52495;DHT22;38405;53.212;5.660;2022-12-18T16:31:52;-1.20;99.90
52495;DHT22;38405;53.212;5.660;2022-12-18T16:36:53;-1.20;99.90
52495;DHT22;38405;53.212;5.660;2022-12-18T16:39:19;-1.20;99.90
52495;DHT22;38405;53.212;5.660;2022-12-18T16:41:45;-1.20;99.90
52495;DHT22;38405;53.212;5.660;2022-12-18T16:44:11;-1.10;99.90
52495;DHT22;38405;53.212;5.660;2022-12-18T16:46:38;-1.10;99.90
52495;DHT22;38405;53.212;5.660;2022-12-18T16:49:04;-1.10;99.90
52495;DHT22;38405;53.212;5.660;2022-12-18T16:51:33;-1.10;99.90
52495;DHT22;38405;53.212;5.660;2022-12-18T16:53:59;-1.00;99.90
52495;DHT22;38405;53.212;5.660;2022-12-18T16:56:24;-1.00;99.90
52495;DHT22;38405;53.212;5.660;2022-12-18T16:58:56;-1.00;99.90
52495;DHT22;38405;53.212;5.660;2022-12-18T17:01:23;-0.90;99.90
52495;DHT22;38405;53.212;5.660;2022-12-18T17:04:00;-0.90;99.90
52495;DHT22;38405;53.212;5.660;2022-12-18T17:06:28;-0.90;99.90
52495;DHT22;38405;53.212;5.660;2022-12-18T17:08:56;-0.90;99.90
52495;DHT22;38405;53.212;5.660;2022-12-18T17:11:24;-0.80;99.90
52495;DHT22;38405;53.212;5.660;2022-12-18T17:13:50;-0.80;99.90
52495;DHT22;38405;53.212;5.660;2022-12-18T17:16:16;-0.80;99.90
52495;DHT22;38405;53.212;5.660;2022-12-18T17:18:42;-0.80;99.90
52495;DHT22;38405;53.212;5.660;2022-12-18T17:21:09;-0.80;99.90
52495;DHT22;38405;53.212;5.660;2022-12-18T17:23:36;-0.70;99.90
52495;DHT22;38405;53.212;5.660;2022-12-18T17:26:02;-0.80;99.90
52495;DHT22;38405;53.212;5.660;2022-12-18T17:28:29;-0.70;99.90
52495;DHT22;38405;53.212;5.660;2022-12-18T17:30:55;-0.70;99.90
52495;DHT22;38405;53.212;5.660;2022-12-18T17:33:21;-0.60;99.90
52495;DHT22;38405;53.212;5.660;2022-12-18T17:35:47;-0.60;99.90
52495;DHT22;38405;53.212;5.660;2022-12-18T17:38:13;-0.60;99.90
52495;DHT22;38405;53.212;5.660;2022-12-18T17:40:39;-0.60;99.90
52495;DHT22;38405;53.212;5.660;2022-12-18T17:43:06;-0.60;99.90
52495;DHT22;38405;53.212;5.660;2022-12-18T17:45:37;-0.60;99.90
52495;DHT22;38405;53.212;5.660;2022-12-18T17:48:04;-0.60;99.90